sensor_id;sensor_type;location;lat;lon;timestamp;P1;durP1;ratioP1;P2;durP2;ratioP2
51594;SDS011;37677;53.254;6.594;2023-05-16T00:02:06;21.42;;;4.38;;
51594;SDS011;37677;53.254;6.594;2023-05-16T00:04:32;26.63;;;4.97;;
51594;SDS011;37677;53.254;6.594;2023-05-16T00:07:00;19.75;;;4.28;;
51594;SDS011;37677;53.254;6.594;2023-05-16T00:09:26;18.38;;;4.55;;
51594;SDS011;37677;53.254;6.594;2023-05-16T00:11:51;21.95;;;4.55;;
51594;SDS011;37677;53.254;6.594;2023-05-16T00:14:17;19.65;;;3.85;;
51594;SDS011;37677;53.254;6.594;2023-05-16T00:16:43;24.00;;;5.00;;
51594;SDS011;37677;53.254;6.594;2023-05-16T00:19:09;19.08;;;4.32;;
51594;SDS011;37677;53.254;6.594;2023-05-16T00:21:35;19.08;;;3.92;;
51594;SDS011;37677;53.254;6.594;2023-05-16T00:24:01;22.83;;;5.07;;
51594;SDS011;37677;53.254;6.594;2023-05-16T00:26:28;19.73;;;3.90;;
51594;SDS011;37677;53.254;6.594;2023-05-16T00:28:53;18.20;;;4.07;;
51594;SDS011;37677;53.254;6.594;2023-05-16T00:31:19;16.70;;;3.45;;
51594;SDS011;37677;53.254;6.594;2023-05-16T00:33:45;17.02;;;3.92;;
51594;SDS011;37677;53.254;6.594;2023-05-16T00:36:11;16.83;;;3.90;;
51594;SDS011;37677;53.254;6.594;2023-05-16T00:38:36;20.88;;;3.60;;
51594;SDS011;37677;53.254;6.594;2023-05-16T00:41:02;18.92;;;4.53;;
51594;SDS011;37677;53.254;6.594;2023-05-16T00:43:28;16.70;;;3.33;;
51594;SDS011;37677;53.254;6.594;2023-05-16T00:45:54;20.85;;;4.95;;
51594;SDS011;37677;53.254;6.594;2023-05-16T00:48:21;23.17;;;3.65;;
51594;SDS011;37677;53.254;6.594;2023-05-16T00:50:47;15.55;;;3.88;;
51594;SDS011;37677;53.254;6.594;2023-05-16T00:53:13;15.82;;;3.92;;
51594;SDS011;37677;53.254;6.594;2023-05-16T00:55:39;19.25;;;3.55;;
51594;SDS011;37677;53.254;6.594;2023-05-16T00:58:05;15.88;;;3.35;;
51594;SDS011;37677;53.254;6.594;2023-05-16T01:00:31;18.13;;;3.63;;
51594;SDS011;37677;53.254;6.594;2023-05-16T01:02:58;18.73;;;3.60;;
51594;SDS011;37677;53.254;6.594;2023-05-16T01:05:24;19.08;;;3.92;;
51594;SDS011;37677;53.254;6.594;2023-05-16T01:07:50;20.00;;;3.83;;
51594;SDS011;37677;53.254;6.594;2023-05-16T01:10:15;20.33;;;3.95;;
51594;SDS011;37677;53.254;6.594;2023-05-16T01:12:55;16.50;;;3.92;;
51594;SDS011;37677;53.254;6.594;2023-05-16T01:15:30;19.98;;;4.47;;
51594;SDS011;37677;53.254;6.594;2023-05-16T01:18:23;17.83;;;4.15;;
51594;SDS011;37677;53.254;6.594;2023-05-16T01:20:55;19.48;;;3.65;;
51594;SDS011;37677;53.254;6.594;2023-05-16T01:26:20;17.92;;;4.50;;
51594;SDS011;37677;53.254;6.594;2023-05-16T01:28:51;15.77;;;3.70;;
51594;SDS011;37677;53.254;6.594;2023-05-16T01:31:18;20.38;;;4.35;;
51594;SDS011;37677;53.254;6.594;2023-05-16T01:33:47;18.38;;;3.72;;
51594;SDS011;37677;53.254;6.594;2023-05-16T01:41:21;21.35;;;3.67;;
51594;SDS011;37677;53.254;6.594;2023-05-16T01:43:52;16.50;;;3.65;;
51594;SDS011;37677;53.254;6.594;2023-05-16T01:46:24;15.68;;;3.83;;
51594;SDS011;37677;53.254;6.594;2023-05-16T01:51:41;20.40;;;3.63;;
51594;SDS011;37677;53.254;6.594;2023-05-16T01:54:14;22.42;;;3.67;;
51594;SDS011;37677;53.254;6.594;2023-05-16T01:56:44;18.13;;;3.95;;
51594;SDS011;37677;53.254;6.594;2023-05-16T01:59:16;18.60;;;3.90;;
51594;SDS011;37677;53.254;6.594;2023-05-16T02:01:45;20.17;;;4.40;;
51594;SDS011;37677;53.254;6.594;2023-05-16T02:04:10;26.95;;;4.97;;
51594;SDS011;37677;53.254;6.594;2023-05-16T02:06:37;25.70;;;5.30;;
51594;SDS011;37677;53.254;6.594;2023-05-16T02:09:03;17.77;;;4.30;;
51594;SDS011;37677;53.254;6.594;2023-05-16T02:11:29;16.25;;;3.50;;
51594;SDS011;37677;53.254;6.594;2023-05-16T02:13:55;19.92;;;3.92;;
51594;SDS011;37677;53.254;6.594;2023-05-16T02:16:20;22.10;;;4.57;;
51594;SDS011;37677;53.254;6.594;2023-05-16T02:18:46;19.88;;;4.47;;
51594;SDS011;37677;53.254;6.594;2023-05-16T02:21:12;16.60;;;3.60;;
51594;SDS011;37677;53.254;6.594;2023-05-16T02:23:38;20.88;;;4.47;;
51594;SDS011;37677;53.254;6.594;2023-05-16T02:26:03;16.17;;;3.65;;
51594;SDS011;37677;53.254;6.594;2023-05-16T02:28:29;18.77;;;3.85;;
51594;SDS011;37677;53.254;6.594;2023-05-16T02:30:58;17.23;;;3.83;;
51594;SDS011;37677;53.254;6.594;2023-05-16T02:33:25;20.10;;;4.03;;
51594;SDS011;37677;53.254;6.594;2023-05-16T02:35:51;20.45;;;4.15;;
51594;SDS011;37677;53.254;6.594;2023-05-16T02:38:17;21.60;;;4.05;;
51594;SDS011;37677;53.254;6.594;2023-05-16T02:40:45;17.77;;;4.95;;
51594;SDS011;37677;53.254;6.594;2023-05-16T02:43:11;17.27;;;3.53;;
51594;SDS011;37677;53.254;6.594;2023-05-16T02:45:37;22.63;;;4.35;;
51594;SDS011;37677;53.254;6.594;2023-05-16T02:48:03;25.05;;;4.70;;
51594;SDS011;37677;53.254;6.594;2023-05-16T02:50:29;22.63;;;4.55;;
51594;SDS011;37677;53.254;6.594;2023-05-16T02:52:55;15.20;;;4.20;;
51594;SDS011;37677;53.254;6.594;2023-05-16T02:55:23;20.33;;;3.90;;
51594;SDS011;37677;53.254;6.594;2023-05-16T02:57:50;17.55;;;4.05;;
51594;SDS011;37677;53.254;6.594;2023-05-16T03:00:16;20.45;;;4.57;;
51594;SDS011;37677;53.254;6.594;2023-05-16T03:02:42;22.65;;;4.70;;
51594;SDS011;37677;53.254;6.594;2023-05-16T03:05:09;15.18;;;3.95;;
51594;SDS011;37677;53.254;6.594;2023-05-16T03:07:36;21.02;;;4.20;;
51594;SDS011;37677;53.254;6.594;2023-05-16T03:10:02;19.17;;;3.40;;
51594;SDS011;37677;53.254;6.594;2023-05-16T03:12:28;22.58;;;4.00;;
51594;SDS011;37677;53.254;6.594;2023-05-16T03:14:54;23.38;;;4.07;;
51594;SDS011;37677;53.254;6.594;2023-05-16T03:17:19;19.00;;;3.78;;
51594;SDS011;37677;53.254;6.594;2023-05-16T03:19:45;23.30;;;4.43;;
51594;SDS011;37677;53.254;6.594;2023-05-16T03:22:11;17.95;;;4.25;;
51594;SDS011;37677;53.254;6.594;2023-05-16T03:24:37;16.92;;;4.13;;
51594;SDS011;37677;53.254;6.594;2023-05-16T03:27:03;19.92;;;4.15;;
51594;SDS011;37677;53.254;6.594;2023-05-16T03:29:29;19.10;;;3.35;;
51594;SDS011;37677;53.254;6.594;2023-05-16T03:31:55;16.38;;;3.45;;
51594;SDS011;37677;53.254;6.594;2023-05-16T03:34:21;12.40;;;3.80;;
51594;SDS011;37677;53.254;6.594;2023-05-16T03:36:48;19.10;;;4.38;;
51594;SDS011;37677;53.254;6.594;2023-05-16T03:39:14;17.65;;;3.67;;
51594;SDS011;37677;53.254;6.594;2023-05-16T03:41:40;18.25;;;4.50;;
51594;SDS011;37677;53.254;6.594;2023-05-16T03:44:06;20.23;;;3.22;;
51594;SDS011;37677;53.254;6.594;2023-05-16T03:46:32;12.65;;;3.25;;
51594;SDS011;37677;53.254;6.594;2023-05-16T03:48:58;17.30;;;3.65;;
51594;SDS011;37677;53.254;6.594;2023-05-16T03:51:24;14.82;;;3.75;;
51594;SDS011;37677;53.254;6.594;2023-05-16T03:53:50;16.40;;;3.70;;
51594;SDS011;37677;53.254;6.594;2023-05-16T03:56:15;20.38;;;4.05;;
51594;SDS011;37677;53.254;6.594;2023-05-16T03:58:41;17.30;;;3.40;;
51594;SDS011;37677;53.254;6.594;2023-05-16T04:01:07;12.90;;;3.33;;
51594;SDS011;37677;53.254;6.594;2023-05-16T04:03:33;17.35;;;3.22;;
51594;SDS011;37677;53.254;6.594;2023-05-16T04:05:59;17.42;;;3.65;;
51594;SDS011;37677;53.254;6.594;2023-05-16T04:08:24;17.90;;;3.60;;
51594;SDS011;37677;53.254;6.594;2023-05-16T04:10:50;19.23;;;3.75;;
51594;SDS011;37677;53.254;6.594;2023-05-16T04:13:16;11.85;;;3.28;;
51594;SDS011;37677;53.254;6.594;2023-05-16T04:15:42;14.32;;;3.40;;
51594;SDS011;37677;53.254;6.594;2023-05-16T04:18:08;19.67;;;3.88;;
51594;SDS011;37677;53.254;6.594;2023-05-16T04:20:34;17.13;;;3.58;;
51594;SDS011;37677;53.254;6.594;2023-05-16T04:23:00;21.65;;;4.15;;
51594;SDS011;37677;53.254;6.594;2023-05-16T04:25:26;17.58;;;4.10;;
51594;SDS011;37677;53.254;6.594;2023-05-16T04:27:51;25.67;;;5.93;;
51594;SDS011;37677;53.254;6.594;2023-05-16T04:30:17;23.38;;;3.17;;
51594;SDS011;37677;53.254;6.594;2023-05-16T04:32:46;23.35;;;4.00;;
51594;SDS011;37677;53.254;6.594;2023-05-16T04:35:12;13.93;;;3.17;;
51594;SDS011;37677;53.254;6.594;2023-05-16T04:37:38;17.45;;;3.72;;
51594;SDS011;37677;53.254;6.594;2023-05-16T04:40:04;19.98;;;3.45;;
51594;SDS011;37677;53.254;6.594;2023-05-16T04:42:32;17.20;;;3.10;;
51594;SDS011;37677;53.254;6.594;2023-05-16T04:44:57;16.30;;;3.42;;
51594;SDS011;37677;53.254;6.594;2023-05-16T04:47:23;15.57;;;4.13;;
51594;SDS011;37677;53.254;6.594;2023-05-16T04:49:49;18.05;;;4.32;;
51594;SDS011;37677;53.254;6.594;2023-05-16T04:52:15;17.52;;;3.47;;
51594;SDS011;37677;53.254;6.594;2023-05-16T04:54:40;17.00;;;3.90;;
51594;SDS011;37677;53.254;6.594;2023-05-16T04:57:06;20.35;;;3.78;;
51594;SDS011;37677;53.254;6.594;2023-05-16T04:59:32;14.13;;;3.42;;
51594;SDS011;37677;53.254;6.594;2023-05-16T05:01:57;14.88;;;3.45;;
51594;SDS011;37677;53.254;6.594;2023-05-16T05:04:23;19.50;;;4.20;;
51594;SDS011;37677;53.254;6.594;2023-05-16T05:06:49;13.30;;;2.95;;
51594;SDS011;37677;53.254;6.594;2023-05-16T05:09:14;16.17;;;3.03;;
51594;SDS011;37677;53.254;6.594;2023-05-16T05:11:41;16.83;;;3.47;;
51594;SDS011;37677;53.254;6.594;2023-05-16T05:14:08;16.30;;;3.35;;
51594;SDS011;37677;53.254;6.594;2023-05-16T05:16:33;15.98;;;3.85;;
51594;SDS011;37677;53.254;6.594;2023-05-16T05:19:00;16.52;;;3.35;;
51594;SDS011;37677;53.254;6.594;2023-05-16T05:21:26;15.60;;;3.20;;
51594;SDS011;37677;53.254;6.594;2023-05-16T05:23:52;14.93;;;2.95;;
51594;SDS011;37677;53.254;6.594;2023-05-16T05:26:18;13.77;;;3.08;;
51594;SDS011;37677;53.254;6.594;2023-05-16T05:28:46;12.10;;;3.05;;
51594;SDS011;37677;53.254;6.594;2023-05-16T05:31:13;17.98;;;3.42;;
51594;SDS011;37677;53.254;6.594;2023-05-16T05:33:38;17.45;;;3.17;;
51594;SDS011;37677;53.254;6.594;2023-05-16T05:36:12;14.60;;;3.00;;
51594;SDS011;37677;53.254;6.594;2023-05-16T05:38:37;17.17;;;3.30;;
51594;SDS011;37677;53.254;6.594;2023-05-16T05:41:04;19.80;;;3.92;;
51594;SDS011;37677;53.254;6.594;2023-05-16T05:43:30;14.18;;;3.25;;
51594;SDS011;37677;53.254;6.594;2023-05-16T05:45:56;12.13;;;2.78;;
51594;SDS011;37677;53.254;6.594;2023-05-16T05:48:22;14.48;;;3.15;;
51594;SDS011;37677;53.254;6.594;2023-05-16T05:50:47;14.15;;;2.88;;
51594;SDS011;37677;53.254;6.594;2023-05-16T05:53:13;17.98;;;3.33;;
51594;SDS011;37677;53.254;6.594;2023-05-16T05:55:39;13.60;;;3.00;;
51594;SDS011;37677;53.254;6.594;2023-05-16T05:58:07;13.27;;;3.50;;
51594;SDS011;37677;53.254;6.594;2023-05-16T06:00:33;11.82;;;2.65;;
51594;SDS011;37677;53.254;6.594;2023-05-16T06:03:01;14.88;;;3.42;;
51594;SDS011;37677;53.254;6.594;2023-05-16T06:05:27;10.50;;;2.75;;
51594;SDS011;37677;53.254;6.594;2023-05-16T06:07:53;20.67;;;3.35;;
51594;SDS011;37677;53.254;6.594;2023-05-16T06:10:19;14.38;;;3.08;;
51594;SDS011;37677;53.254;6.594;2023-05-16T06:12:45;20.90;;;3.72;;
51594;SDS011;37677;53.254;6.594;2023-05-16T06:15:11;14.60;;;3.10;;
51594;SDS011;37677;53.254;6.594;2023-05-16T06:17:36;16.40;;;4.03;;
51594;SDS011;37677;53.254;6.594;2023-05-16T06:20:02;15.75;;;3.28;;
51594;SDS011;37677;53.254;6.594;2023-05-16T06:22:29;11.90;;;2.97;;
51594;SDS011;37677;53.254;6.594;2023-05-16T06:24:56;13.25;;;3.30;;
51594;SDS011;37677;53.254;6.594;2023-05-16T06:27:21;11.55;;;3.00;;
51594;SDS011;37677;53.254;6.594;2023-05-16T06:29:47;13.15;;;2.47;;
51594;SDS011;37677;53.254;6.594;2023-05-16T06:32:13;10.48;;;2.60;;
51594;SDS011;37677;53.254;6.594;2023-05-16T06:34:38;16.30;;;2.63;;
51594;SDS011;37677;53.254;6.594;2023-05-16T06:37:04;13.00;;;3.05;;
51594;SDS011;37677;53.254;6.594;2023-05-16T06:39:30;14.27;;;2.88;;
51594;SDS011;37677;53.254;6.594;2023-05-16T06:41:55;12.18;;;3.33;;
51594;SDS011;37677;53.254;6.594;2023-05-16T06:44:21;12.23;;;3.00;;
51594;SDS011;37677;53.254;6.594;2023-05-16T06:46:47;14.63;;;3.25;;
51594;SDS011;37677;53.254;6.594;2023-05-16T06:49:13;15.07;;;3.25;;
51594;SDS011;37677;53.254;6.594;2023-05-16T06:51:39;11.45;;;2.88;;
51594;SDS011;37677;53.254;6.594;2023-05-16T06:54:05;9.30;;;2.45;;
51594;SDS011;37677;53.254;6.594;2023-05-16T06:56:30;6.53;;;1.88;;
51594;SDS011;37677;53.254;6.594;2023-05-16T06:58:56;6.68;;;2.40;;
51594;SDS011;37677;53.254;6.594;2023-05-16T07:01:22;11.35;;;3.13;;
51594;SDS011;37677;53.254;6.594;2023-05-16T07:03:48;10.38;;;3.13;;
51594;SDS011;37677;53.254;6.594;2023-05-16T07:06:13;7.13;;;2.58;;
51594;SDS011;37677;53.254;6.594;2023-05-16T07:08:39;8.52;;;2.45;;
51594;SDS011;37677;53.254;6.594;2023-05-16T07:11:05;9.65;;;2.67;;
51594;SDS011;37677;53.254;6.594;2023-05-16T07:13:30;13.43;;;2.75;;
51594;SDS011;37677;53.254;6.594;2023-05-16T07:15:56;10.85;;;3.15;;
51594;SDS011;37677;53.254;6.594;2023-05-16T07:18:23;16.25;;;3.53;;
51594;SDS011;37677;53.254;6.594;2023-05-16T07:20:53;11.77;;;2.85;;
51594;SDS011;37677;53.254;6.594;2023-05-16T07:23:35;10.05;;;3.13;;
51594;SDS011;37677;53.254;6.594;2023-05-16T07:26:13;10.25;;;2.88;;
51594;SDS011;37677;53.254;6.594;2023-05-16T07:28:44;11.73;;;2.97;;
51594;SDS011;37677;53.254;6.594;2023-05-16T07:31:14;14.15;;;3.92;;
51594;SDS011;37677;53.254;6.594;2023-05-16T07:33:41;11.88;;;3.03;;
51594;SDS011;37677;53.254;6.594;2023-05-16T07:36:08;10.70;;;3.33;;
51594;SDS011;37677;53.254;6.594;2023-05-16T07:38:34;13.65;;;3.05;;
51594;SDS011;37677;53.254;6.594;2023-05-16T07:41:00;11.00;;;2.83;;
51594;SDS011;37677;53.254;6.594;2023-05-16T07:43:25;17.92;;;2.88;;
51594;SDS011;37677;53.254;6.594;2023-05-16T07:45:51;10.80;;;2.95;;
51594;SDS011;37677;53.254;6.594;2023-05-16T07:48:17;13.68;;;2.67;;
51594;SDS011;37677;53.254;6.594;2023-05-16T07:50:43;15.05;;;2.67;;
51594;SDS011;37677;53.254;6.594;2023-05-16T07:53:08;13.98;;;2.83;;
51594;SDS011;37677;53.254;6.594;2023-05-16T07:55:34;13.07;;;3.55;;
51594;SDS011;37677;53.254;6.594;2023-05-16T07:58:00;12.65;;;3.10;;
51594;SDS011;37677;53.254;6.594;2023-05-16T08:00:26;9.15;;;2.67;;
51594;SDS011;37677;53.254;6.594;2023-05-16T08:02:52;19.25;;;2.97;;
51594;SDS011;37677;53.254;6.594;2023-05-16T08:05:18;15.70;;;3.20;;
51594;SDS011;37677;53.254;6.594;2023-05-16T08:07:44;9.35;;;3.00;;
51594;SDS011;37677;53.254;6.594;2023-05-16T08:10:09;15.57;;;3.25;;
51594;SDS011;37677;53.254;6.594;2023-05-16T08:12:36;13.35;;;3.35;;
51594;SDS011;37677;53.254;6.594;2023-05-16T08:15:02;14.73;;;3.05;;
51594;SDS011;37677;53.254;6.594;2023-05-16T08:17:29;11.40;;;3.45;;
51594;SDS011;37677;53.254;6.594;2023-05-16T08:19:55;8.90;;;2.75;;
51594;SDS011;37677;53.254;6.594;2023-05-16T08:22:26;6.95;;;2.08;;
51594;SDS011;37677;53.254;6.594;2023-05-16T08:24:52;8.80;;;2.35;;
51594;SDS011;37677;53.254;6.594;2023-05-16T08:27:22;12.70;;;3.05;;
51594;SDS011;37677;53.254;6.594;2023-05-16T08:29:49;10.93;;;2.45;;
51594;SDS011;37677;53.254;6.594;2023-05-16T08:32:14;10.70;;;3.20;;
51594;SDS011;37677;53.254;6.594;2023-05-16T08:34:40;9.45;;;2.60;;
51594;SDS011;37677;53.254;6.594;2023-05-16T08:37:06;9.30;;;2.78;;
51594;SDS011;37677;53.254;6.594;2023-05-16T08:39:32;10.43;;;2.55;;
51594;SDS011;37677;53.254;6.594;2023-05-16T08:41:58;11.27;;;2.65;;
51594;SDS011;37677;53.254;6.594;2023-05-16T08:44:24;11.25;;;3.28;;
51594;SDS011;37677;53.254;6.594;2023-05-16T08:46:52;15.90;;;3.10;;
51594;SDS011;37677;53.254;6.594;2023-05-16T08:49:19;17.00;;;3.63;;
51594;SDS011;37677;53.254;6.594;2023-05-16T08:51:46;14.00;;;3.22;;
51594;SDS011;37677;53.254;6.594;2023-05-16T08:54:13;14.23;;;3.53;;
51594;SDS011;37677;53.254;6.594;2023-05-16T08:56:43;9.32;;;2.67;;
51594;SDS011;37677;53.254;6.594;2023-05-16T08:59:10;12.07;;;3.70;;
51594;SDS011;37677;53.254;6.594;2023-05-16T09:01:36;11.68;;;3.58;;
51594;SDS011;37677;53.254;6.594;2023-05-16T09:04:03;10.00;;;2.40;;
51594;SDS011;37677;53.254;6.594;2023-05-16T09:06:31;13.13;;;2.85;;
51594;SDS011;37677;53.254;6.594;2023-05-16T09:08:57;8.80;;;2.70;;
51594;SDS011;37677;53.254;6.594;2023-05-16T09:11:22;11.70;;;3.00;;
51594;SDS011;37677;53.254;6.594;2023-05-16T09:13:48;14.75;;;3.38;;
51594;SDS011;37677;53.254;6.594;2023-05-16T09:16:15;12.73;;;3.15;;
51594;SDS011;37677;53.254;6.594;2023-05-16T09:18:43;12.68;;;2.97;;
51594;SDS011;37677;53.254;6.594;2023-05-16T09:21:27;13.73;;;2.83;;
51594;SDS011;37677;53.254;6.594;2023-05-16T09:23:54;13.45;;;3.17;;
51594;SDS011;37677;53.254;6.594;2023-05-16T09:26:19;9.10;;;3.00;;
51594;SDS011;37677;53.254;6.594;2023-05-16T09:28:46;10.73;;;2.50;;
51594;SDS011;37677;53.254;6.594;2023-05-16T09:31:19;10.95;;;2.60;;
51594;SDS011;37677;53.254;6.594;2023-05-16T09:33:45;10.75;;;2.83;;
51594;SDS011;37677;53.254;6.594;2023-05-16T09:36:12;8.05;;;2.63;;
51594;SDS011;37677;53.254;6.594;2023-05-16T09:38:39;7.60;;;2.60;;
51594;SDS011;37677;53.254;6.594;2023-05-16T09:41:05;8.57;;;2.35;;
51594;SDS011;37677;53.254;6.594;2023-05-16T09:43:36;13.40;;;3.22;;
51594;SDS011;37677;53.254;6.594;2023-05-16T09:46:03;12.35;;;2.97;;
51594;SDS011;37677;53.254;6.594;2023-05-16T09:48:31;10.95;;;3.00;;
51594;SDS011;37677;53.254;6.594;2023-05-16T09:50:57;13.35;;;3.08;;
51594;SDS011;37677;53.254;6.594;2023-05-16T09:53:31;13.13;;;4.28;;
51594;SDS011;37677;53.254;6.594;2023-05-16T09:56:04;11.43;;;3.00;;
51594;SDS011;37677;53.254;6.594;2023-05-16T09:58:35;15.77;;;2.83;;
51594;SDS011;37677;53.254;6.594;2023-05-16T10:01:06;14.27;;;2.95;;
51594;SDS011;37677;53.254;6.594;2023-05-16T10:03:33;13.93;;;3.45;;
51594;SDS011;37677;53.254;6.594;2023-05-16T10:06:00;11.25;;;2.88;;
51594;SDS011;37677;53.254;6.594;2023-05-16T10:08:28;14.43;;;2.97;;
51594;SDS011;37677;53.254;6.594;2023-05-16T10:10:56;9.95;;;2.72;;
51594;SDS011;37677;53.254;6.594;2023-05-16T10:13:29;10.75;;;2.75;;
51594;SDS011;37677;53.254;6.594;2023-05-16T10:15:56;11.93;;;2.42;;
51594;SDS011;37677;53.254;6.594;2023-05-16T10:18:23;7.22;;;2.10;;
51594;SDS011;37677;53.254;6.594;2023-05-16T10:20:55;10.15;;;2.55;;
51594;SDS011;37677;53.254;6.594;2023-05-16T10:23:24;9.20;;;2.17;;
51594;SDS011;37677;53.254;6.594;2023-05-16T10:25:50;10.25;;;3.03;;
51594;SDS011;37677;53.254;6.594;2023-05-16T10:28:16;8.50;;;2.20;;
51594;SDS011;37677;53.254;6.594;2023-05-16T10:30:43;8.90;;;2.35;;
51594;SDS011;37677;53.254;6.594;2023-05-16T10:33:14;10.75;;;2.63;;
51594;SDS011;37677;53.254;6.594;2023-05-16T10:35:42;9.85;;;2.58;;
51594;SDS011;37677;53.254;6.594;2023-05-16T10:38:09;10.65;;;2.88;;
51594;SDS011;37677;53.254;6.594;2023-05-16T10:40:37;9.32;;;2.58;;
51594;SDS011;37677;53.254;6.594;2023-05-16T10:45:34;12.20;;;2.60;;
51594;SDS011;37677;53.254;6.594;2023-05-16T10:48:04;10.55;;;2.95;;
51594;SDS011;37677;53.254;6.594;2023-05-16T10:53:14;9.57;;;2.70;;
51594;SDS011;37677;53.254;6.594;2023-05-16T11:01:44;13.15;;;3.00;;
51594;SDS011;37677;53.254;6.594;2023-05-16T11:14:39;14.80;;;3.47;;
51594;SDS011;37677;53.254;6.594;2023-05-16T11:17:15;8.98;;;2.28;;
51594;SDS011;37677;53.254;6.594;2023-05-16T11:24:58;9.80;;;2.78;;
51594;SDS011;37677;53.254;6.594;2023-05-16T11:30:02;9.80;;;2.42;;
51594;SDS011;37677;53.254;6.594;2023-05-16T11:32:37;8.57;;;2.53;;
51594;SDS011;37677;53.254;6.594;2023-05-16T11:35:04;8.70;;;2.65;;
51594;SDS011;37677;53.254;6.594;2023-05-16T11:37:33;8.98;;;2.78;;
51594;SDS011;37677;53.254;6.594;2023-05-16T11:40:06;13.85;;;3.28;;
51594;SDS011;37677;53.254;6.594;2023-05-16T11:42:34;10.50;;;3.10;;
51594;SDS011;37677;53.254;6.594;2023-05-16T11:45:21;15.18;;;3.58;;
51594;SDS011;37677;53.254;6.594;2023-05-16T11:47:49;12.48;;;3.22;;
51594;SDS011;37677;53.254;6.594;2023-05-16T11:52:42;15.40;;;3.53;;
51594;SDS011;37677;53.254;6.594;2023-05-16T11:55:22;14.60;;;3.45;;
51594;SDS011;37677;53.254;6.594;2023-05-16T11:57:53;12.23;;;3.63;;
51594;SDS011;37677;53.254;6.594;2023-05-16T12:00:20;14.70;;;3.63;;
51594;SDS011;37677;53.254;6.594;2023-05-16T12:02:49;13.27;;;3.47;;
51594;SDS011;37677;53.254;6.594;2023-05-16T12:05:15;13.07;;;3.55;;
51594;SDS011;37677;53.254;6.594;2023-05-16T12:07:42;12.43;;;3.38;;
51594;SDS011;37677;53.254;6.594;2023-05-16T12:10:09;13.65;;;3.58;;
51594;SDS011;37677;53.254;6.594;2023-05-16T12:12:37;11.52;;;4.07;;
51594;SDS011;37677;53.254;6.594;2023-05-16T12:15:05;13.90;;;3.83;;
51594;SDS011;37677;53.254;6.594;2023-05-16T12:17:33;11.93;;;3.45;;
51594;SDS011;37677;53.254;6.594;2023-05-16T12:20:00;13.32;;;3.63;;
51594;SDS011;37677;53.254;6.594;2023-05-16T12:22:29;11.48;;;4.22;;
51594;SDS011;37677;53.254;6.594;2023-05-16T12:24:57;15.30;;;3.80;;
51594;SDS011;37677;53.254;6.594;2023-05-16T12:27:24;10.90;;;3.60;;
51594;SDS011;37677;53.254;6.594;2023-05-16T12:29:51;16.25;;;4.15;;
51594;SDS011;37677;53.254;6.594;2023-05-16T12:32:17;16.05;;;4.40;;
51594;SDS011;37677;53.254;6.594;2023-05-16T12:34:50;11.30;;;4.00;;
51594;SDS011;37677;53.254;6.594;2023-05-16T12:37:17;18.52;;;4.88;;
51594;SDS011;37677;53.254;6.594;2023-05-16T12:39:43;11.40;;;3.60;;
51594;SDS011;37677;53.254;6.594;2023-05-16T12:42:12;15.75;;;4.78;;
51594;SDS011;37677;53.254;6.594;2023-05-16T12:44:38;11.55;;;4.55;;
51594;SDS011;37677;53.254;6.594;2023-05-16T12:47:11;8.77;;;4.20;;
51594;SDS011;37677;53.254;6.594;2023-05-16T12:49:47;13.70;;;4.20;;
51594;SDS011;37677;53.254;6.594;2023-05-16T12:52:18;11.73;;;4.28;;
51594;SDS011;37677;53.254;6.594;2023-05-16T12:54:45;12.43;;;4.30;;
51594;SDS011;37677;53.254;6.594;2023-05-16T12:57:12;10.18;;;3.67;;
51594;SDS011;37677;53.254;6.594;2023-05-16T12:59:38;11.20;;;4.70;;
51594;SDS011;37677;53.254;6.594;2023-05-16T13:02:03;8.65;;;3.80;;
51594;SDS011;37677;53.254;6.594;2023-05-16T13:04:29;11.68;;;4.63;;
51594;SDS011;37677;53.254;6.594;2023-05-16T13:06:55;11.43;;;3.72;;
51594;SDS011;37677;53.254;6.594;2023-05-16T13:09:21;11.18;;;3.72;;
51594;SDS011;37677;53.254;6.594;2023-05-16T13:11:47;16.75;;;4.43;;
51594;SDS011;37677;53.254;6.594;2023-05-16T13:14:14;15.40;;;4.68;;
51594;SDS011;37677;53.254;6.594;2023-05-16T13:16:41;10.50;;;4.22;;
51594;SDS011;37677;53.254;6.594;2023-05-16T13:19:07;11.82;;;3.75;;
51594;SDS011;37677;53.254;6.594;2023-05-16T13:21:33;7.68;;;3.53;;
51594;SDS011;37677;53.254;6.594;2023-05-16T13:23:59;10.15;;;3.40;;
51594;SDS011;37677;53.254;6.594;2023-05-16T13:26:25;9.13;;;3.83;;
51594;SDS011;37677;53.254;6.594;2023-05-16T13:28:51;9.55;;;3.72;;
51594;SDS011;37677;53.254;6.594;2023-05-16T13:31:19;6.53;;;3.28;;
51594;SDS011;37677;53.254;6.594;2023-05-16T13:33:46;6.75;;;2.88;;
51594;SDS011;37677;53.254;6.594;2023-05-16T13:36:11;7.50;;;3.70;;
51594;SDS011;37677;53.254;6.594;2023-05-16T13:38:37;5.80;;;3.72;;
51594;SDS011;37677;53.254;6.594;2023-05-16T13:41:03;7.60;;;3.90;;
51594;SDS011;37677;53.254;6.594;2023-05-16T13:43:29;7.05;;;3.92;;
51594;SDS011;37677;53.254;6.594;2023-05-16T13:45:54;8.35;;;3.92;;
51594;SDS011;37677;53.254;6.594;2023-05-16T13:48:21;9.32;;;4.10;;
51594;SDS011;37677;53.254;6.594;2023-05-16T13:50:46;8.38;;;4.10;;
51594;SDS011;37677;53.254;6.594;2023-05-16T13:53:12;12.50;;;5.30;;
51594;SDS011;37677;53.254;6.594;2023-05-16T13:55:38;7.15;;;4.40;;
51594;SDS011;37677;53.254;6.594;2023-05-16T13:58:04;8.45;;;3.95;;
51594;SDS011;37677;53.254;6.594;2023-05-16T14:00:29;8.43;;;3.65;;
51594;SDS011;37677;53.254;6.594;2023-05-16T14:02:55;10.02;;;4.65;;
51594;SDS011;37677;53.254;6.594;2023-05-16T14:05:21;10.57;;;4.32;;
51594;SDS011;37677;53.254;6.594;2023-05-16T14:07:47;11.02;;;4.43;;
51594;SDS011;37677;53.254;6.594;2023-05-16T14:10:12;9.38;;;3.70;;
51594;SDS011;37677;53.254;6.594;2023-05-16T14:12:38;8.93;;;4.00;;
51594;SDS011;37677;53.254;6.594;2023-05-16T14:15:04;7.53;;;3.83;;
51594;SDS011;37677;53.254;6.594;2023-05-16T14:17:31;12.73;;;3.88;;
51594;SDS011;37677;53.254;6.594;2023-05-16T14:19:57;12.13;;;4.65;;
51594;SDS011;37677;53.254;6.594;2023-05-16T14:22:22;11.45;;;3.90;;
51594;SDS011;37677;53.254;6.594;2023-05-16T14:24:48;9.60;;;3.97;;
51594;SDS011;37677;53.254;6.594;2023-05-16T14:27:14;11.15;;;3.50;;
51594;SDS011;37677;53.254;6.594;2023-05-16T14:29:41;6.88;;;3.10;;
51594;SDS011;37677;53.254;6.594;2023-05-16T14:32:08;5.65;;;2.80;;
51594;SDS011;37677;53.254;6.594;2023-05-16T14:34:35;7.18;;;3.05;;
51594;SDS011;37677;53.254;6.594;2023-05-16T14:37:01;7.47;;;3.47;;
51594;SDS011;37677;53.254;6.594;2023-05-16T14:39:26;6.22;;;2.92;;
51594;SDS011;37677;53.254;6.594;2023-05-16T14:41:52;6.93;;;3.15;;
51594;SDS011;37677;53.254;6.594;2023-05-16T14:44:18;8.05;;;3.20;;
51594;SDS011;37677;53.254;6.594;2023-05-16T14:46:45;11.00;;;3.72;;
51594;SDS011;37677;53.254;6.594;2023-05-16T14:49:11;8.60;;;3.13;;
51594;SDS011;37677;53.254;6.594;2023-05-16T14:51:37;9.15;;;3.58;;
51594;SDS011;37677;53.254;6.594;2023-05-16T14:54:03;11.18;;;3.65;;
51594;SDS011;37677;53.254;6.594;2023-05-16T14:56:29;11.35;;;3.45;;
51594;SDS011;37677;53.254;6.594;2023-05-16T14:58:56;10.43;;;3.60;;
51594;SDS011;37677;53.254;6.594;2023-05-16T15:01:22;9.88;;;3.10;;
51594;SDS011;37677;53.254;6.594;2023-05-16T15:03:47;8.50;;;2.58;;
51594;SDS011;37677;53.254;6.594;2023-05-16T15:06:13;10.35;;;2.90;;
51594;SDS011;37677;53.254;6.594;2023-05-16T15:08:40;7.03;;;2.47;;
51594;SDS011;37677;53.254;6.594;2023-05-16T15:11:06;8.25;;;2.63;;
51594;SDS011;37677;53.254;6.594;2023-05-16T15:13:32;8.45;;;2.83;;
51594;SDS011;37677;53.254;6.594;2023-05-16T15:15:57;7.32;;;2.40;;
51594;SDS011;37677;53.254;6.594;2023-05-16T15:18:23;7.18;;;2.60;;
51594;SDS011;37677;53.254;6.594;2023-05-16T15:20:49;11.05;;;2.28;;